Time;durP1;ratioP1;P1;durP2;ratioP2;P2;SDS_P1;SDS_P2;PMS_P1;PMS_P2;Temp;Humidity;BMP_temperature;BMP_pressure;BME280_temperature;BME280_humidity;BME280_pressure;Samples;Min_cycle;Max_cycle;Signal;HPM_P1;HPM_P2
2022/02/24 00:00:07;;;;;;;3.83;2.57;;;9.40;99.90;;;;;;5037470;28;20239;-39
2022/02/24 00:02:33;;;;;;;5.83;2.43;;;9.50;99.90;;;;;;5030843;28;20475;-39
2022/02/24 00:04:59;;;;;;;4.87;2.67;;;9.50;99.90;;;;;;5031194;28;20437;-40
2022/02/24 00:07:25;;;;;;;5.17;2.13;;;9.50;99.90;;;;;;5031940;28;20492;-39
2022/02/24 00:09:51;;;;;;;4.07;2.43;;;9.40;99.90;;;;;;5030001;28;20417;-40
2022/02/24 00:12:17;;;;;;;8.50;2.73;;;9.60;99.90;;;;;;5031821;28;20429;-43
2022/02/24 00:14:42;;;;;;;10.27;3.00;;;9.40;99.90;;;;;;5019807;28;20447;-40
2022/02/24 00:17:08;;;;;;;9.47;3.20;;;9.30;99.90;;;;;;5030709;28;20522;-39
2022/02/24 00:19:34;;;;;;;6.10;2.83;;;9.30;99.90;;;;;;5032088;28;20183;-39
2022/02/24 00:22:00;;;;;;;6.63;3.10;;;9.40;99.90;;;;;;5050438;28;20296;-40
2022/02/24 00:24:26;;;;;;;6.47;2.73;;;9.20;99.90;;;;;;5051491;28;20519;-41
2022/02/24 00:26:52;;;;;;;7.37;2.90;;;9.20;99.90;;;;;;5051492;28;20205;-40
2022/02/24 00:29:17;;;;;;;5.83;3.37;;;9.10;99.90;;;;;;5024510;28;20191;-41
2022/02/24 00:31:44;;;;;;;8.70;3.20;;;9.20;99.90;;;;;;5030684;28;20186;-39
2022/02/24 00:34:09;;;;;;;4.40;3.23;;;9.20;99.90;;;;;;5031454;28;20204;-39
2022/02/24 00:36:35;;;;;;;6.20;3.70;;;9.10;99.90;;;;;;5031275;28;20417;-39
2022/02/24 00:39:01;;;;;;;3.90;3.20;;;9.20;99.90;;;;;;5030229;28;20393;-40
2022/02/24 00:41:27;;;;;;;7.67;3.50;;;9.30;99.90;;;;;;5030524;28;20167;-40
2022/02/24 00:43:53;;;;;;;4.17;3.03;;;9.10;99.90;;;;;;5023671;28;20483;-39
2022/02/24 00:46:19;;;;;;;5.73;2.97;;;9.00;99.90;;;;;;5030979;28;20178;-40
2022/02/24 00:48:44;;;;;;;7.50;2.70;;;9.10;99.90;;;;;;5030054;28;20210;-39
2022/02/24 00:51:10;;;;;;;7.40;3.07;;;9.00;99.90;;;;;;5030314;28;20190;-39
2022/02/24 00:53:41;;;;;;;4.13;2.40;;;9.10;99.90;;;;;;5031137;28;20201;-41
2022/02/24 00:56:07;;;;;;;5.33;2.70;;;9.30;99.90;;;;;;5030862;28;20815;-40
2022/02/24 00:58:33;;;;;;;5.47;2.70;;;9.10;99.90;;;;;;5023756;28;20465;-39
2022/02/24 01:00:59;;;;;;;6.90;3.07;;;9.30;99.90;;;;;;5026063;28;20425;-40
2022/02/24 01:03:25;;;;;;;5.77;2.40;;;9.20;99.90;;;;;;5029134;28;20210;-39
2022/02/24 01:05:50;;;;;;;11.80;2.73;;;9.30;99.90;;;;;;5031057;28;20188;-40
2022/02/24 01:08:16;;;;;;;8.13;3.50;;;9.30;99.90;;;;;;5030687;28;20187;-39
2022/02/24 01:10:42;;;;;;;6.97;2.83;;;9.20;99.90;;;;;;5029696;28;20663;-40
2022/02/24 01:13:07;;;;;;;3.67;2.50;;;9.10;99.90;;;;;;5027014;28;20194;-40
2022/02/24 01:15:38;;;;;;;6.97;2.50;;;9.00;99.90;;;;;;5029481;28;20277;-39
2022/02/24 01:18:07;;;;;;;6.70;3.20;;;9.20;99.90;;;;;;5030545;28;20555;-39
2022/02/24 01:20:32;;;;;;;5.73;2.53;;;9.20;99.90;;;;;;5030071;28;20429;-39
2022/02/24 01:22:58;;;;;;;8.97;2.90;;;9.30;99.90;;;;;;5035024;28;20480;-39
2022/02/24 01:25:24;;;;;;;6.70;2.60;;;9.30;99.90;;;;;;5050247;28;20179;-40
2022/02/24 01:27:50;;;;;;;7.43;3.37;;;9.50;99.90;;;;;;5050422;28;20224;-40
2022/02/24 01:30:16;;;;;;;6.70;2.57;;;9.20;99.90;;;;;;5018928;28;21108;-39
2022/02/24 01:32:41;;;;;;;7.27;3.20;;;9.20;99.90;;;;;;5030403;28;20700;-40
2022/02/24 01:35:07;;;;;;;4.50;3.00;;;9.10;99.90;;;;;;5030472;28;20421;-41
2022/02/24 01:37:33;;;;;;;9.27;3.53;;;9.40;99.90;;;;;;5030288;28;20611;-39
2022/02/24 01:39:59;;;;;;;4.80;2.40;;;9.10;99.90;;;;;;5029287;28;20421;-39
2022/02/24 01:42:25;;;;;;;3.83;2.67;;;9.20;99.90;;;;;;5030218;28;20221;-39
2022/02/24 01:44:51;;;;;;;4.83;2.70;;;9.00;99.90;;;;;;5022530;28;20185;-39
2022/02/24 01:47:16;;;;;;;4.57;3.07;;;9.10;99.90;;;;;;5030003;28;20178;-39
2022/02/24 01:49:43;;;;;;;5.30;2.67;;;9.00;99.90;;;;;;5029389;28;20439;-40
2022/02/24 01:52:11;;;;;;;5.10;2.67;;;8.90;99.90;;;;;;5029898;28;20210;-39
2022/02/24 01:54:38;;;;;;;5.50;2.80;;;8.90;99.90;;;;;;5029669;28;20437;-39
2022/02/24 01:57:04;;;;;;;8.00;2.83;;;9.30;99.90;;;;;;5029808;28;20440;-40
2022/02/24 01:59:31;;;;;;;10.53;2.97;;;9.10;99.90;;;;;;5019317;28;20837;-39
2022/02/24 02:01:57;;;;;;;9.17;3.00;;;9.20;99.90;;;;;;5028908;28;20548;-40
2022/02/24 02:04:23;;;;;;;7.33;2.67;;;9.10;99.90;;;;;;5029950;28;20838;-39
2022/02/24 02:06:49;;;;;;;9.03;3.90;;;9.10;99.90;;;;;;5029719;28;20222;-40
2022/02/24 02:09:16;;;;;;;4.63;2.57;;;9.30;99.90;;;;;;5029540;28;20464;-40
2022/02/24 02:11:42;;;;;;;5.87;2.80;;;9.30;99.90;;;;;;5029046;28;20190;-39
2022/02/24 02:14:12;;;;;;;5.87;2.80;;;9.10;99.90;;;;;;5021986;28;20959;-39
2022/02/24 02:16:44;;;;;;;3.37;1.90;;;9.00;99.90;;;;;;5027827;28;20252;-39
2022/02/24 02:19:10;;;;;;;5.87;2.20;;;9.00;99.90;;;;;;5029586;28;20413;-39
2022/02/24 02:21:36;;;;;;;7.33;2.50;;;8.90;99.90;;;;;;5033302;28;21068;-40
2022/02/24 02:24:02;;;;;;;2.77;2.17;;;9.00;99.90;;;;;;5042936;28;20598;-40
2022/02/24 02:26:28;;;;;;;8.90;2.40;;;9.20;99.90;;;;;;5049194;28;20430;-39
2022/02/24 02:28:54;;;;;;;5.50;2.20;;;9.20;99.90;;;;;;5041276;28;20433;-39
2022/02/24 02:31:21;;;;;;;5.50;2.60;;;9.20;99.90;;;;;;5020301;28;20198;-39
2022/02/24 02:33:46;;;;;;;5.13;2.80;;;9.10;99.90;;;;;;5029157;28;20190;-40
2022/02/24 02:36:12;;;;;;;8.60;2.57;;;9.10;99.90;;;;;;5029052;28;20486;-39
2022/02/24 02:38:38;;;;;;;4.47;2.10;;;9.10;99.90;;;;;;5029263;28;20206;-39
2022/02/24 02:41:04;;;;;;;8.00;2.40;;;9.10;99.90;;;;;;5006296;28;20195;-41
2022/02/24 02:43:30;;;;;;;5.10;2.60;;;9.20;99.90;;;;;;5020927;28;20522;-39
2022/02/24 02:45:55;;;;;;;5.73;2.60;;;8.90;99.90;;;;;;5017282;28;20281;-40
2022/02/24 02:48:21;;;;;;;6.33;2.70;;;9.00;99.90;;;;;;5029071;28;20198;-39
2022/02/24 02:50:47;;;;;;;4.30;2.40;;;9.00;99.90;;;;;;5028312;28;20190;-40
2022/02/24 02:53:13;;;;;;;7.00;4.27;;;9.10;99.90;;;;;;5027948;28;20218;-40
2022/02/24 02:55:38;;;;;;;5.53;2.53;;;9.20;99.90;;;;;;5029073;28;20296;-39
2022/02/24 02:58:04;;;;;;;4.93;2.33;;;9.20;99.90;;;;;;5029097;28;20214;-39
2022/02/24 03:00:30;;;;;;;5.53;2.37;;;9.00;99.90;;;;;;5019615;28;20597;-40
2022/02/24 03:02:55;;;;;;;7.90;2.30;;;9.10;99.90;;;;;;5028869;28;20209;-40
2022/02/24 03:05:22;;;;;;;7.50;2.60;;;9.20;99.90;;;;;;5028721;28;20285;-39
2022/02/24 03:07:49;;;;;;;4.50;2.57;;;9.20;99.90;;;;;;5029000;28;20645;-40
2022/02/24 03:10:15;;;;;;;6.17;3.40;;;9.10;99.90;;;;;;5028303;28;20512;-39
2022/02/24 03:12:41;;;;;;;4.80;2.57;;;9.10;99.90;;;;;;5028951;28;21191;-41
2022/02/24 03:15:13;;;;;;;6.97;2.67;;;9.10;99.90;;;;;;5019198;28;20520;-40
2022/02/24 03:17:43;;;;;;;6.00;2.67;;;9.10;99.90;;;;;;5028262;28;20186;-39
2022/02/24 03:20:09;;;;;;;5.10;2.57;;;9.10;99.90;;;;;;5027895;28;20491;-39
2022/02/24 03:22:35;;;;;;;5.57;3.10;;;9.10;99.90;;;;;;5038119;28;21013;-40
2022/02/24 03:25:01;;;;;;;5.23;2.13;;;9.10;99.90;;;;;;5048157;28;20416;-40
2022/02/24 03:27:26;;;;;;;4.17;2.77;;;9.10;99.90;;;;;;5048767;28;20174;-40
2022/02/24 03:29:52;;;;;;;4.53;3.40;;;8.80;99.90;;;;;;5032296;28;20521;-40
2022/02/24 03:32:18;;;;;;;3.80;2.60;;;8.90;99.90;;;;;;5025111;28;20186;-39
2022/02/24 03:34:44;;;;;;;6.30;2.97;;;8.90;99.90;;;;;;5029488;28;20190;-39
2022/02/24 03:37:10;;;;;;;3.87;2.30;;;8.80;99.90;;;;;;5032612;28;20196;-41
2022/02/24 03:39:36;;;;;;;9.23;3.50;;;8.90;99.90;;;;;;5030860;28;20417;-39
2022/02/24 03:42:02;;;;;;;9.47;3.57;;;9.00;99.90;;;;;;5032097;28;20456;-40
2022/02/24 03:44:28;;;;;;;5.83;2.80;;;8.90;99.90;;;;;;5028677;28;20183;-39
2022/02/24 03:46:54;;;;;;;6.97;2.80;;;8.90;99.90;;;;;;5025570;28;20421;-39
2022/02/24 03:49:20;;;;;;;7.10;2.93;;;8.80;99.90;;;;;;5032359;28;20440;-39
2022/02/24 03:51:45;;;;;;;10.57;3.40;;;8.80;99.90;;;;;;5031744;28;20182;-39
2022/02/24 03:54:11;;;;;;;2.90;2.40;;;8.80;99.90;;;;;;5031203;28;20277;-39
2022/02/24 03:56:37;;;;;;;7.03;3.30;;;8.90;99.90;;;;;;5032168;28;20581;-40
2022/02/24 03:59:02;;;;;;;6.70;3.07;;;8.70;99.90;;;;;;5029863;28;20221;-39
2022/02/24 04:01:28;;;;;;;5.57;3.53;;;8.90;99.90;;;;;;5023576;28;20185;-40
2022/02/24 04:03:54;;;;;;;7.97;2.80;;;8.70;99.90;;;;;;5031588;28;20241;-40
2022/02/24 04:06:20;;;;;;;4.27;3.00;;;8.90;99.90;;;;;;5032263;28;20252;-42
2022/02/24 04:08:45;;;;;;;5.40;2.63;;;8.90;99.90;;;;;;5031921;28;20212;-39
2022/02/24 04:11:11;;;;;;;6.50;3.10;;;8.90;99.90;;;;;;5031480;28;20417;-40
2022/02/24 04:13:37;;;;;;;5.43;2.67;;;9.00;99.90;;;;;;5031767;28;20235;-40
2022/02/24 04:16:03;;;;;;;8.50;3.00;;;8.90;99.90;;;;;;5025293;28;20182;-39
2022/02/24 04:18:28;;;;;;;5.40;2.53;;;9.00;99.90;;;;;;5031383;28;20640;-40
2022/02/24 04:20:54;;;;;;;3.60;2.33;;;9.10;99.90;;;;;;5042880;28;20452;-41
2022/02/24 04:23:20;;;;;;;7.80;3.33;;;9.10;99.90;;;;;;5050250;28;20214;-39
2022/02/24 04:25:46;;;;;;;7.03;3.10;;;9.00;99.90;;;;;;5051668;28;20178;-39
2022/02/24 04:28:11;;;;;;;9.10;3.20;;;9.00;99.90;;;;;;5051599;28;20182;-39
2022/02/24 04:30:37;;;;;;;8.80;3.33;;;8.90;99.90;;;;;;5029317;28;20183;-40
2022/02/24 04:33:03;;;;;;;6.93;3.00;;;9.20;99.90;;;;;;5031343;28;20202;-39
2022/02/24 04:35:29;;;;;;;5.20;2.33;;;8.90;99.90;;;;;;5031505;28;20190;-39
2022/02/24 04:37:54;;;;;;;6.23;3.60;;;9.00;99.90;;;;;;5031444;28;20187;-39
2022/02/24 04:40:20;;;;;;;8.13;3.60;;;8.80;99.90;;;;;;5030722;28;20373;-39
2022/02/24 04:42:46;;;;;;;5.33;2.43;;;8.80;99.90;;;;;;5036631;28;20205;-40
2022/02/24 04:45:12;;;;;;;3.50;2.77;;;8.70;99.90;;;;;;5035348;28;20437;-39
2022/02/24 04:47:38;;;;;;;5.63;2.40;;;8.80;99.90;;;;;;5030128;28;20183;-39
2022/02/24 04:50:08;;;;;;;5.70;3.00;;;8.70;99.90;;;;;;5030727;28;20265;-39
2022/02/24 04:52:34;;;;;;;3.33;2.40;;;8.90;99.90;;;;;;5031225;28;20559;-39
2022/02/24 04:55:00;;;;;;;4.67;2.20;;;8.80;99.90;;;;;;5031199;28;20417;-39
2022/02/24 04:57:27;;;;;;;11.23;3.60;;;8.90;99.90;;;;;;5030893;28;20453;-39
2022/02/24 04:59:53;;;;;;;8.87;3.20;;;9.00;99.90;;;;;;5024117;28;20306;-41
2022/02/24 05:02:18;;;;;;;5.83;2.70;;;9.10;99.90;;;;;;5022569;28;20536;-39
2022/02/24 05:04:44;;;;;;;9.30;3.17;;;9.10;99.90;;;;;;5031080;28;20179;-40
2022/02/24 05:07:10;;;;;;;5.93;3.47;;;9.20;99.90;;;;;;5030874;28;20186;-40
2022/02/24 05:09:35;;;;;;;7.17;2.67;;;8.80;99.90;;;;;;5029250;28;20194;-39
2022/02/24 05:12:01;;;;;;;7.00;3.00;;;9.10;99.90;;;;;;5030485;28;20201;-39
2022/02/24 05:14:27;;;;;;;6.20;2.23;;;9.10;99.90;;;;;;5030332;28;20565;-40
2022/02/24 05:16:52;;;;;;;6.67;2.80;;;8.80;99.90;;;;;;5017903;28;20655;-40
2022/02/24 05:19:18;;;;;;;6.60;3.10;;;9.10;99.90;;;;;;5030863;28;20254;-39
2022/02/24 05:21:44;;;;;;;6.70;2.80;;;9.00;99.90;;;;;;5048101;28;20186;-39
2022/02/24 05:24:09;;;;;;;4.27;2.87;;;9.00;99.90;;;;;;5040606;28;20269;-39
2022/02/24 05:26:37;;;;;;;5.80;2.60;;;8.80;99.90;;;;;;5048846;28;20217;-40
2022/02/24 05:29:03;;;;;;;4.97;2.67;;;8.80;99.90;;;;;;5050224;28;20276;-39
2022/02/24 05:31:28;;;;;;;5.20;2.50;;;9.00;99.90;;;;;;5023741;28;20520;-40
2022/02/24 05:33:54;;;;;;;4.23;2.20;;;9.00;99.90;;;;;;5030449;28;20544;-39
2022/02/24 05:36:20;;;;;;;7.30;2.70;;;9.00;99.90;;;;;;5030561;28;20194;-39
2022/02/24 05:38:45;;;;;;;3.73;2.50;;;8.90;99.90;;;;;;5030249;28;20186;-39
2022/02/24 05:41:11;;;;;;;7.43;3.10;;;8.90;99.90;;;;;;5026351;28;20201;-40
2022/02/24 05:43:37;;;;;;;4.30;2.77;;;9.10;99.90;;;;;;5025491;28;20242;-40
2022/02/24 05:46:02;;;;;;;5.83;2.93;;;8.80;99.90;;;;;;5018931;28;20187;-39
2022/02/24 05:48:28;;;;;;;7.37;3.17;;;9.00;99.90;;;;;;5026359;28;20537;-39
2022/02/24 05:50:54;;;;;;;4.67;2.67;;;9.00;99.90;;;;;;5029418;28;20244;-39
2022/02/24 05:53:19;;;;;;;6.27;2.70;;;9.10;99.90;;;;;;5030083;28;20293;-39
2022/02/24 05:55:45;;;;;;;4.60;2.80;;;9.20;99.90;;;;;;5029837;28;20651;-39
2022/02/24 05:58:11;;;;;;;8.13;3.50;;;8.90;99.90;;;;;;5029104;28;20222;-39
2022/02/24 06:00:36;;;;;;;4.57;2.50;;;9.10;99.90;;;;;;5018400;28;20277;-39
2022/02/24 06:03:02;;;;;;;8.23;2.73;;;9.10;99.90;;;;;;5023806;28;20612;-39
2022/02/24 06:05:28;;;;;;;5.90;2.70;;;9.10;99.90;;;;;;5034843;28;20186;-39
2022/02/24 06:07:54;;;;;;;3.60;2.10;;;9.00;99.90;;;;;;5049790;28;20426;-41
2022/02/24 06:10:19;;;;;;;14.07;2.53;;;9.10;99.90;;;;;;5036742;28;20224;-39
2022/02/24 06:12:45;;;;;;;6.60;2.90;;;9.10;99.90;;;;;;5049351;28;20247;-40
2022/02/24 06:15:12;;;;;;;3.93;2.13;;;9.00;99.90;;;;;;5043718;28;20208;-39
2022/02/24 06:17:38;;;;;;;4.43;2.83;;;9.00;99.90;;;;;;5022272;28;20421;-40
2022/02/24 06:20:05;;;;;;;4.33;2.17;;;8.90;99.90;;;;;;5033499;28;20431;-39
2022/02/24 06:22:31;;;;;;;5.87;2.80;;;9.00;99.90;;;;;;5049486;28;20456;-39
2022/02/24 06:24:56;;;;;;;4.40;2.33;;;8.80;99.90;;;;;;5041668;28;20911;-40
2022/02/24 06:27:22;;;;;;;4.40;2.70;;;9.00;99.90;;;;;;5049097;28;20657;-41
2022/02/24 06:29:48;;;;;;;6.17;2.60;;;8.90;99.90;;;;;;5048741;28;21099;-40
2022/02/24 06:32:14;;;;;;;3.53;1.80;;;9.10;99.90;;;;;;5021055;28;20193;-40
2022/02/24 06:34:40;;;;;;;6.33;2.77;;;8.90;99.90;;;;;;5029359;28;20444;-40
2022/02/24 06:37:07;;;;;;;5.13;2.60;;;9.20;99.90;;;;;;5028794;28;20194;-40
2022/02/24 06:39:33;;;;;;;5.40;2.20;;;8.80;99.90;;;;;;5028920;28;20417;-39
2022/02/24 06:41:59;;;;;;;7.50;2.50;;;9.10;99.90;;;;;;5028583;28;20448;-41
2022/02/24 06:44:25;;;;;;;4.13;2.70;;;9.10;99.90;;;;;;5028173;28;20429;-39
2022/02/24 06:46:51;;;;;;;2.93;2.23;;;9.00;99.90;;;;;;5024867;28;20441;-41
2022/02/24 06:49:16;;;;;;;4.50;2.20;;;8.90;99.90;;;;;;5022495;28;20943;-40
2022/02/24 06:51:42;;;;;;;7.50;2.77;;;9.00;99.90;;;;;;5027470;28;20178;-40
2022/02/24 06:54:08;;;;;;;6.47;2.80;;;9.00;99.90;;;;;;5027517;28;20739;-39
2022/02/24 06:56:33;;;;;;;3.90;2.00;;;9.00;99.90;;;;;;5027428;28;20220;-39
2022/02/24 06:58:59;;;;;;;4.30;2.40;;;9.00;99.90;;;;;;5027397;28;20190;-39
2022/02/24 07:01:25;;;;;;;4.73;2.00;;;8.90;99.90;;;;;;5017776;28;20194;-42
2022/02/24 07:03:51;;;;;;;6.20;1.83;;;9.00;99.90;;;;;;5027572;28;20747;-39
2022/02/24 07:06:17;;;;;;;8.57;2.77;;;9.10;99.90;;;;;;5028949;28;20536;-41
2022/02/24 07:08:42;;;;;;;6.00;2.40;;;9.00;99.90;;;;;;5023716;28;20183;-39
2022/02/24 07:11:08;;;;;;;5.60;2.10;;;8.80;99.90;;;;;;5030382;28;20206;-39
2022/02/24 07:13:34;;;;;;;5.07;2.80;;;8.80;99.90;;;;;;5031960;28;20193;-39
2022/02/24 07:15:59;;;;;;;3.07;2.00;;;9.00;99.90;;;;;;5026975;28;20187;-39
2022/02/24 07:18:25;;;;;;;4.33;2.00;;;9.00;99.90;;;;;;5022894;28;20257;-40
2022/02/24 07:20:50;;;;;;;4.27;2.10;;;9.10;99.90;;;;;;5031758;28;20715;-39
2022/02/24 07:23:16;;;;;;;5.73;2.10;;;9.00;99.90;;;;;;5049887;28;20851;-39
2022/02/24 07:25:42;;;;;;;4.67;1.97;;;9.10;99.90;;;;;;5049504;28;20284;-40
2022/02/24 07:28:08;;;;;;;6.97;2.37;;;8.90;99.90;;;;;;5051386;28;20260;-39
2022/02/24 07:30:38;;;;;;;4.00;2.10;;;9.10;99.90;;;;;;5034648;28;20186;-40
2022/02/24 07:33:04;;;;;;;4.43;2.13;;;8.80;99.90;;;;;;5029356;28;20413;-39
2022/02/24 07:35:30;;;;;;;4.03;2.20;;;8.90;99.90;;;;;;5031998;28;20471;-40
2022/02/24 07:37:55;;;;;;;4.33;2.63;;;8.90;99.90;;;;;;5034816;28;20435;-40
2022/02/24 07:40:21;;;;;;;5.90;3.20;;;9.00;99.90;;;;;;5031645;28;20790;-39
2022/02/24 07:42:47;;;;;;;7.53;2.10;;;9.20;99.90;;;;;;5032251;28;20214;-39
2022/02/24 07:45:13;;;;;;;5.47;2.10;;;9.10;99.90;;;;;;5032956;28;21359;-39
2022/02/24 07:47:39;;;;;;;7.33;2.67;;;9.00;99.90;;;;;;5026235;28;20182;-40
2022/02/24 07:50:06;;;;;;;5.90;2.20;;;9.00;99.90;;;;;;5031561;28;20424;-39
2022/02/24 07:52:32;;;;;;;5.73;1.90;;;8.90;99.90;;;;;;5034371;28;20858;-40
2022/02/24 07:54:58;;;;;;;5.00;2.20;;;9.30;99.90;;;;;;5036381;28;20444;-40
2022/02/24 07:57:24;;;;;;;4.00;2.43;;;9.20;99.90;;;;;;5050518;28;20263;-40
2022/02/24 07:59:49;;;;;;;4.77;2.27;;;9.10;99.90;;;;;;5039155;28;20424;-40
2022/02/24 08:02:15;;;;;;;3.43;2.30;;;9.10;99.90;;;;;;5026626;28;20210;-39
2022/02/24 08:04:41;;;;;;;2.47;1.93;;;9.10;99.90;;;;;;5031901;28;20260;-40
2022/02/24 08:07:06;;;;;;;4.07;1.77;;;9.10;99.90;;;;;;5031903;28;20208;-39
2022/02/24 08:09:32;;;;;;;2.67;1.50;;;9.00;99.90;;;;;;5031877;28;20277;-39
2022/02/24 08:14:42;;;;;;;2.87;1.70;;;9.10;99.90;;;;;;5031989;28;20285;-40
2022/02/24 08:17:08;;;;;;;3.10;1.93;;;9.00;99.90;;;;;;5020809;28;20460;-39
2022/02/24 08:19:34;;;;;;;6.17;2.07;;;9.40;99.90;;;;;;5030187;28;20429;-40
2022/02/24 08:22:01;;;;;;;6.80;1.70;;;9.40;99.90;;;;;;5038802;28;20671;-40
2022/02/24 08:24:27;;;;;;;6.00;2.50;;;9.30;99.90;;;;;;5051309;28;20429;-39
2022/02/24 08:26:54;;;;;;;4.40;2.47;;;9.40;99.90;;;;;;5051683;28;20437;-40
2022/02/24 08:29:20;;;;;;;5.70;1.90;;;9.30;99.90;;;;;;5051492;28;20178;-40
2022/02/24 08:31:46;;;;;;;4.17;2.30;;;9.30;99.90;;;;;;5035559;28;20441;-40
2022/02/24 08:34:11;;;;;;;5.53;2.20;;;9.30;99.90;;;;;;5026446;28;20273;-40
2022/02/24 08:36:37;;;;;;;2.63;2.00;;;9.20;99.90;;;;;;5029612;28;20222;-39
2022/02/24 08:39:05;;;;;;;4.23;2.53;;;9.50;99.90;;;;;;5046195;28;20263;-39
2022/02/24 08:41:32;;;;;;;5.03;2.10;;;9.60;99.90;;;;;;5032819;28;20198;-39
2022/02/24 08:43:58;;;;;;;4.13;1.97;;;9.50;99.90;;;;;;5031164;28;20722;-39
2022/02/24 08:46:23;;;;;;;5.53;2.17;;;9.50;99.90;;;;;;5028359;28;20904;-39
2022/02/24 08:48:49;;;;;;;6.47;1.87;;;9.30;99.90;;;;;;5025681;28;20178;-39
2022/02/24 08:51:15;;;;;;;5.13;2.17;;;9.30;99.90;;;;;;5030450;28;20195;-39
2022/02/24 08:53:40;;;;;;;8.63;2.30;;;9.60;99.90;;;;;;5031403;28;20202;-39
2022/02/24 08:56:06;;;;;;;4.83;1.93;;;9.50;99.90;;;;;;5031118;28;20194;-39
2022/02/24 08:58:32;;;;;;;5.30;1.97;;;9.40;99.90;;;;;;5030168;28;20213;-41
2022/02/24 09:00:58;;;;;;;2.67;1.80;;;9.40;99.90;;;;;;5030254;28;21030;-41
2022/02/24 09:03:24;;;;;;;8.40;1.93;;;9.50;99.90;;;;;;5026553;28;20469;-39
2022/02/24 09:05:50;;;;;;;4.70;2.00;;;9.50;99.90;;;;;;5030722;28;20447;-39
2022/02/24 09:08:15;;;;;;;10.27;2.20;;;9.60;99.90;;;;;;5031079;28;20202;-39
2022/02/24 09:10:42;;;;;;;4.30;2.20;;;9.50;99.90;;;;;;5030200;28;20519;-39
2022/02/24 09:13:08;;;;;;;2.63;1.80;;;9.80;99.90;;;;;;5030908;28;20508;-39
2022/02/24 09:15:35;;;;;;;3.43;1.87;;;9.60;99.90;;;;;;5030891;28;20421;-40
2022/02/24 09:18:03;;;;;;;6.23;2.07;;;9.70;99.90;;;;;;5017056;28;20580;-39
2022/02/24 09:20:29;;;;;;;4.20;2.10;;;9.50;99.90;;;;;;5036608;28;20431;-39
2022/02/24 09:22:55;;;;;;;1.73;1.30;;;9.60;99.90;;;;;;5025682;28;20468;-40
2022/02/24 09:25:23;;;;;;;4.17;1.63;;;9.40;99.90;;;;;;5030717;28;20421;-39
2022/02/24 09:27:49;;;;;;;5.33;1.70;;;9.40;99.90;;;;;;5030387;28;20487;-40
2022/02/24 09:30:16;;;;;;;3.40;1.80;;;9.70;99.90;;;;;;5029968;28;20451;-39
2022/02/24 09:32:43;;;;;;;4.87;1.63;;;9.60;99.90;;;;;;5020232;28;20445;-39
2022/02/24 09:35:11;;;;;;;5.13;1.40;;;9.30;99.90;;;;;;5029005;28;20428;-42
2022/02/24 09:37:36;;;;;;;5.13;1.80;;;9.50;99.90;;;;;;5030058;28;20433;-40
2022/02/24 09:40:08;;;;;;;3.40;1.43;;;9.50;99.90;;;;;;5028560;28;20423;-41
2022/02/24 09:42:34;;;;;;;2.30;1.20;;;9.50;99.90;;;;;;5029841;28;20213;-40
2022/02/24 09:45:00;;;;;;;2.90;1.60;;;9.60;99.90;;;;;;5029065;28;20857;-39
2022/02/24 09:47:28;;;;;;;5.43;1.60;;;9.50;99.90;;;;;;5024388;28;20938;-39
2022/02/24 09:49:56;;;;;;;3.70;1.70;;;9.60;99.90;;;;;;5023132;28;20750;-39
2022/02/24 09:52:22;;;;;;;3.43;1.30;;;9.60;99.90;;;;;;5030014;28;20460;-39
2022/02/24 09:54:48;;;;;;;4.90;2.30;;;9.60;99.90;;;;;;5029972;28;20445;-40
2022/02/24 09:57:14;;;;;;;5.23;1.57;;;9.80;99.90;;;;;;5028570;28;20248;-39
2022/02/24 09:59:39;;;;;;;3.70;1.90;;;9.50;99.90;;;;;;5027966;28;20186;-40
2022/02/24 10:02:06;;;;;;;4.93;2.63;;;9.30;99.90;;;;;;5024878;28;20662;-39
2022/02/24 10:04:33;;;;;;;6.00;2.80;;;9.40;99.90;;;;;;5022765;28;20209;-39
2022/02/24 10:06:58;;;;;;;4.20;2.23;;;9.40;99.90;;;;;;5029642;28;20520;-39
2022/02/24 10:09:33;;;;;;;7.00;2.70;;;9.60;99.90;;;;;;5029623;28;20497;-40
2022/02/24 10:12:08;;;;;;;6.63;2.77;;;9.70;99.90;;;;;;5029516;28;20194;-39
2022/02/24 10:14:35;;;;;;;6.77;2.87;;;9.70;99.90;;;;;;5029385;28;21110;-39
2022/02/24 10:17:07;;;;;;;4.10;2.70;;;9.70;99.90;;;;;;5025858;28;20492;-40
2022/02/24 10:19:43;;;;;;;3.27;2.60;;;9.80;99.90;;;;;;5026645;28;20433;-39
2022/02/24 10:22:12;;;;;;;7.10;3.50;;;9.90;99.90;;;;;;5028087;28;20792;-39
2022/02/24 10:24:40;;;;;;;8.00;3.00;;;10.00;99.90;;;;;;5028455;28;20475;-39
2022/02/24 10:27:20;;;;;;;4.20;3.07;;;10.00;99.90;;;;;;5029049;28;20452;-39
2022/02/24 10:30:16;;;;;;;9.30;3.30;;;9.80;99.90;;;;;;5028912;28;20523;-39
2022/02/24 10:32:45;;;;;;;4.90;2.77;;;9.60;99.90;;;;;;5027645;28;20440;-39
2022/02/24 10:35:31;;;;;;;5.50;3.50;;;9.70;99.90;;;;;;5025276;28;20536;-39
2022/02/24 10:37:59;;;;;;;4.90;3.20;;;9.80;99.90;;;;;;5028032;28;21123;-39
2022/02/24 10:40:27;;;;;;;5.63;3.10;;;9.80;99.90;;;;;;5028819;28;20452;-39
2022/02/24 10:42:53;;;;;;;4.87;3.00;;;9.80;99.90;;;;;;5029031;28;20464;-39
2022/02/24 10:45:25;;;;;;;5.10;2.97;;;9.70;99.90;;;;;;5029138;28;20440;-39
2022/02/24 10:47:59;;;;;;;5.07;3.20;;;9.80;99.90;;;;;;5019858;28;20190;-39
2022/02/24 10:50:48;;;;;;;7.20;2.90;;;9.70;99.90;;;;;;5024688;28;20457;-40
2022/02/24 10:53:15;;;;;;;4.50;2.50;;;9.60;99.90;;;;;;5040495;28;20432;-39
2022/02/24 10:56:02;;;;;;;4.13;2.37;;;9.80;99.90;;;;;;5045743;28;20760;-39
2022/02/24 10:58:32;;;;;;;4.40;2.33;;;9.60;99.90;;;;;;5042970;28;20999;-39
2022/02/24 11:01:08;;;;;;;5.53;2.10;;;9.60;99.90;;;;;;5048389;28;20438;-39
2022/02/24 11:03:34;;;;;;;4.93;2.37;;;9.60;99.90;;;;;;5023237;28;20492;-39
2022/02/24 11:06:04;;;;;;;3.93;2.30;;;9.60;99.90;;;;;;5029157;28;20495;-39
2022/02/24 11:08:31;;;;;;;3.90;2.30;;;9.60;99.90;;;;;;5028841;28;21047;-39
2022/02/24 11:10:59;;;;;;;2.60;1.70;;;9.60;99.90;;;;;;5028320;28;21011;-39
2022/02/24 11:13:25;;;;;;;4.63;2.20;;;9.70;99.90;;;;;;5027433;28;20464;-39
2022/02/24 11:15:51;;;;;;;3.87;2.20;;;9.70;99.90;;;;;;5029115;28;20487;-39
2022/02/24 11:18:17;;;;;;;5.13;1.40;;;9.80;99.90;;;;;;5022026;28;20882;-39
2022/02/24 11:20:43;;;;;;;2.93;2.00;;;9.60;99.90;;;;;;5028244;28;20183;-39
2022/02/24 11:23:10;;;;;;;5.70;2.13;;;9.80;99.90;;;;;;5028551;28;20233;-39
2022/02/24 11:25:46;;;;;;;4.70;2.00;;;9.90;99.90;;;;;;5027509;28;20433;-39
2022/02/24 11:28:14;;;;;;;4.00;1.97;;;10.10;99.90;;;;;;5027414;28;20821;-39
2022/02/24 11:30:46;;;;;;;3.77;2.47;;;9.80;99.90;;;;;;5028251;28;20429;-40
2022/02/24 11:33:15;;;;;;;3.53;2.07;;;10.00;99.90;;;;;;5026262;28;20428;-39
2022/02/24 11:35:41;;;;;;;3.57;2.07;;;9.70;99.90;;;;;;5021573;28;20906;-39
2022/02/24 11:38:14;;;;;;;3.17;2.30;;;9.90;99.90;;;;;;5028665;28;20494;-39
2022/02/24 11:40:41;;;;;;;5.43;2.37;;;9.90;99.90;;;;;;5028097;28;20244;-39
2022/02/24 11:43:21;;;;;;;5.47;2.90;;;10.20;99.90;;;;;;5028517;28;20478;-38
2022/02/24 11:45:48;;;;;;;4.63;2.40;;;10.20;99.90;;;;;;5028711;28;20432;-39
2022/02/24 11:48:16;;;;;;;5.57;3.30;;;10.00;99.90;;;;;;5027751;28;20429;-39
2022/02/24 11:50:57;;;;;;;5.97;2.80;;;10.30;99.90;;;;;;5019827;28;20571;-39
2022/02/24 11:53:26;;;;;;;5.50;2.77;;;10.20;99.90;;;;;;5028700;28;20417;-39
2022/02/24 11:55:57;;;;;;;4.00;3.20;;;10.00;99.90;;;;;;5029471;28;20436;-38
2022/02/24 11:58:31;;;;;;;5.33;2.60;;;10.20;99.90;;;;;;5032040;28;20460;-38
2022/02/24 12:01:17;;;;;;;4.40;2.90;;;10.00;99.90;;;;;;5030771;28;20427;-39
2022/02/24 12:03:46;;;;;;;3.83;2.63;;;9.80;99.90;;;;;;5027559;28;20497;-39
2022/02/24 12:06:20;;;;;;;5.00;2.97;;;10.00;99.90;;;;;;5024534;28;20996;-39
2022/02/24 12:09:06;;;;;;;3.90;2.80;;;10.00;99.90;;;;;;5031566;28;20473;-39
2022/02/24 12:11:46;;;;;;;6.40;2.83;;;10.00;99.90;;;;;;5031145;28;20828;-39
2022/02/24 12:14:23;;;;;;;4.40;2.43;;;10.10;99.90;;;;;;5032086;28;20506;-39
2022/02/24 12:17:03;;;;;;;5.23;2.67;;;10.00;99.90;;;;;;5031768;28;20431;-39
2022/02/24 12:19:48;;;;;;;5.70;2.50;;;10.10;99.90;;;;;;5023956;28;20496;-39
2022/02/24 12:22:20;;;;;;;9.90;2.70;;;10.20;99.90;;;;;;5031445;28;20424;-39
2022/02/24 12:25:05;;;;;;;4.83;2.40;;;10.50;99.90;;;;;;5033577;28;20427;-39
2022/02/24 12:27:43;;;;;;;4.23;2.43;;;10.70;99.90;;;;;;5047095;28;20432;-38
2022/02/24 12:30:09;;;;;;;2.70;2.20;;;10.80;99.90;;;;;;5050939;28;20431;-38
2022/02/24 12:33:24;;;;;;;4.27;2.30;;;11.10;99.90;;;;;;5051364;28;20826;-39
2022/02/24 12:35:51;;;;;;;4.80;2.43;;;11.30;99.90;;;;;;5015748;28;20503;-39
2022/02/24 12:38:20;;;;;;;5.40;2.70;;;11.40;99.90;;;;;;5031124;28;20483;-39
2022/02/24 12:40:48;;;;;;;3.73;2.80;;;11.60;99.90;;;;;;5030788;28;20920;-39
2022/02/24 12:43:16;;;;;;;4.53;2.93;;;11.50;99.90;;;;;;5029895;28;20472;-39
2022/02/24 12:45:44;;;;;;;6.63;2.80;;;11.80;99.90;;;;;;5031471;28;20422;-39
2022/02/24 12:48:11;;;;;;;4.40;2.90;;;12.00;99.90;;;;;;5031279;28;20428;-39
2022/02/24 12:50:42;;;;;;;3.53;2.20;;;12.10;99.90;;;;;;5020586;28;20856;-39
2022/02/24 12:53:14;;;;;;;3.97;2.60;;;12.20;99.90;;;;;;5030901;28;20429;-39
2022/02/24 12:55:40;;;;;;;4.43;2.20;;;12.20;99.90;;;;;;5031211;28;20440;-39
2022/02/24 12:58:09;;;;;;;7.90;3.40;;;12.30;99.90;;;;;;5030807;28;20778;-40